createdAt,value
2022-09-27T00:01:07.841Z,7.30
2022-09-27T00:03:35.901Z,7.24
2022-09-27T00:06:21.598Z,7.35
2022-09-27T00:08:49.226Z,7.27
2022-09-27T00:11:27.757Z,7.29
2022-09-27T00:13:57.274Z,7.18
2022-09-27T00:16:27.160Z,7.22
2022-09-27T00:19:00.308Z,7.20
2022-09-27T00:21:30.699Z,7.21
2022-09-27T00:23:59.298Z,7.15
2022-09-27T00:26:27.667Z,7.16
2022-09-27T00:28:55.602Z,7.11
2022-09-27T00:31:29.953Z,7.15
2022-09-27T00:34:01.307Z,7.15
2022-09-27T00:36:29.799Z,7.13
2022-09-27T00:38:59.912Z,7.11
2022-09-27T00:41:34.262Z,7.10
2022-09-27T00:44:04.416Z,7.12
2022-09-27T00:46:42.743Z,7.08
2022-09-27T00:49:19.497Z,7.13
2022-09-27T00:51:53.843Z,7.08
2022-09-27T00:54:25.732Z,7.11
2022-09-27T00:56:54.056Z,7.07
2022-09-27T00:59:35.718Z,7.09
2022-09-27T01:02:05.405Z,7.02
2022-09-27T01:04:35.752Z,6.96
2022-09-27T01:07:03.363Z,7.00
2022-09-27T01:09:31.323Z,6.93
2022-09-27T01:12:17.658Z,6.97
2022-09-27T01:14:54.012Z,6.97
2022-09-27T01:17:52.809Z,7.03
2022-09-27T01:20:57.704Z,7.02
2022-09-27T01:24:01.250Z,6.94
2022-09-27T01:27:19.872Z,7.04
2022-09-27T01:30:19.086Z,7.00
2022-09-27T01:33:05.619Z,6.99
2022-09-27T01:35:59.074Z,6.92
2022-09-27T01:39:04.310Z,6.99
2022-09-27T01:41:56.843Z,6.92
2022-09-27T01:44:37.735Z,6.92
2022-09-27T01:47:29.247Z,6.95
2022-09-27T01:50:29.826Z,6.94
2022-09-27T01:53:08.271Z,6.88
2022-09-27T01:55:50.922Z,6.88
2022-09-27T01:58:51.678Z,6.90
2022-09-27T02:01:23.827Z,6.89
2022-09-27T02:03:55.046Z,6.89
2022-09-27T02:06:47.457Z,6.90
2022-09-27T02:09:31.107Z,6.90
2022-09-27T02:12:34.016Z,6.90
2022-09-27T02:15:07.082Z,6.84
2022-09-27T02:17:59.275Z,6.93
2022-09-27T02:20:39.100Z,6.87
2022-09-27T02:23:34.800Z,6.89
2022-09-27T02:26:15.032Z,6.83
2022-09-27T02:28:49.876Z,6.87
2022-09-27T02:31:25.684Z,6.85
2022-09-27T02:34:00.991Z,6.86
2022-09-27T02:36:29.305Z,6.82
2022-09-27T02:38:57.155Z,6.80
2022-09-27T02:41:24.695Z,6.75
2022-09-27T02:43:57.135Z,6.79
2022-09-27T02:47:04.268Z,6.87
2022-09-27T02:49:56.739Z,6.80
2022-09-27T02:52:57.085Z,6.77
2022-09-27T02:55:50.814Z,6.76
2022-09-27T02:58:58.374Z,6.74
2022-09-27T03:02:13.723Z,6.80
2022-09-27T03:05:18.003Z,6.77
2022-09-27T03:07:46.139Z,6.68
2022-09-27T03:10:23.641Z,6.77
2022-09-27T03:12:52.612Z,6.76
2022-09-27T03:15:20.379Z,6.73
2022-09-27T03:18:03.576Z,6.71
2022-09-27T03:20:42.974Z,6.79
2022-09-27T03:23:12.637Z,6.77
2022-09-27T03:25:42.779Z,6.77
2022-09-27T03:28:13.785Z,6.77
2022-09-27T03:30:44.602Z,6.76
2022-09-27T03:33:14.362Z,6.76
2022-09-27T03:35:43.260Z,6.76
2022-09-27T03:38:11.176Z,6.72
2022-09-27T03:40:39.743Z,6.76
2022-09-27T03:43:08.551Z,6.72
2022-09-27T03:45:36.208Z,6.78
2022-09-27T03:48:07.450Z,6.76
2022-09-27T03:50:35.051Z,6.76
2022-09-27T03:53:02.682Z,6.72
2022-09-27T03:55:31.186Z,6.72
2022-09-27T03:57:58.806Z,6.73
2022-09-27T04:00:26.633Z,6.81
2022-09-27T04:02:54.546Z,6.78
2022-09-27T04:05:22.094Z,6.88
2022-09-27T04:07:51.092Z,6.96
2022-09-27T04:10:20.508Z,6.97
2022-09-27T04:12:48.970Z,7.04
2022-09-27T04:15:17.028Z,7.13
2022-09-27T04:18:04.364Z,7.49
2022-09-27T04:20:36.048Z,7.43
2022-09-27T04:23:07.726Z,7.43
2022-09-27T04:25:39.916Z,7.71
2022-09-27T04:28:19.531Z,7.90
2022-09-27T04:30:47.269Z,8.14
2022-09-27T04:33:46.830Z,8.35
2022-09-27T04:36:28.665Z,8.52
2022-09-27T04:39:06.831Z,8.71
2022-09-27T04:41:37.764Z,8.91
2022-09-27T04:44:06.601Z,9.02
2022-09-27T04:46:35.059Z,9.18
2022-09-27T04:49:03.413Z,9.37
2022-09-27T04:51:33.223Z,9.47
2022-09-27T04:54:02.016Z,9.68
2022-09-27T04:56:33.303Z,9.77
2022-09-27T04:59:06.793Z,9.96
2022-09-27T05:01:36.064Z,10.20
2022-09-27T05:04:14.515Z,10.46
2022-09-27T05:06:46.779Z,10.65
2022-09-27T05:09:23.860Z,10.83
2022-09-27T05:11:54.465Z,11.03
2022-09-27T05:14:40.616Z,11.18
2022-09-27T05:17:08.230Z,11.34
2022-09-27T05:19:50.758Z,11.50
2022-09-27T05:22:38.267Z,11.69
2022-09-27T05:25:06.422Z,11.80
2022-09-27T05:27:34.082Z,11.96
2022-09-27T05:30:02.193Z,12.16
2022-09-27T05:32:49.420Z,12.41
2022-09-27T05:35:36.231Z,12.54
2022-09-27T05:38:04.319Z,12.67
2022-09-27T05:40:42.882Z,12.73
2022-09-27T05:43:15.406Z,12.79
2022-09-27T05:45:44.402Z,13.01
2022-09-27T05:48:14.760Z,13.24
2022-09-27T05:51:08.367Z,13.50
2022-09-27T05:53:40.247Z,13.76
2022-09-27T05:56:14.668Z,14.04
2022-09-27T05:59:02.271Z,14.77
2022-09-27T06:01:42.866Z,14.81
2022-09-27T06:04:36.077Z,15.29
2022-09-27T06:07:26.496Z,15.63
2022-09-27T06:09:56.755Z,15.95
2022-09-27T06:12:24.313Z,16.31
2022-09-27T06:14:52.851Z,16.68
2022-09-27T06:17:35.882Z,17.02
2022-09-27T06:20:10.215Z,17.21
2022-09-27T06:22:38.306Z,17.15
2022-09-27T06:25:06.358Z,17.14
2022-09-27T06:27:40.627Z,17.58
2022-09-27T06:30:20.104Z,18.14
2022-09-27T06:33:02.659Z,18.83
2022-09-27T06:35:42.654Z,18.47
2022-09-27T06:38:12.368Z,18.18
2022-09-27T06:40:47.606Z,18.43
2022-09-27T06:43:18.086Z,19.01
2022-09-27T06:46:08.949Z,19.78
2022-09-27T06:48:55.123Z,20.41
2022-09-27T06:51:23.125Z,20.98
2022-09-27T06:53:50.707Z,21.33
2022-09-27T06:56:18.454Z,21.59
2022-09-27T06:59:07.653Z,20.85
2022-09-27T07:02:01.065Z,20.18
2022-09-27T07:04:32.024Z,20.22
2022-09-27T07:07:06.291Z,20.37
2022-09-27T07:09:39.259Z,20.30
2022-09-27T07:12:07.398Z,20.45
2022-09-27T07:14:35.283Z,20.93
2022-09-27T07:17:04.245Z,21.36
2022-09-27T07:19:38.018Z,21.82
2022-09-27T07:22:06.198Z,22.28
2022-09-27T07:24:34.070Z,22.49
2022-09-27T07:27:02.300Z,22.76
2022-09-27T07:29:29.861Z,23.02
2022-09-27T07:31:57.375Z,22.30
2022-09-27T07:34:26.274Z,21.55
2022-09-27T07:36:55.142Z,21.91
2022-09-27T07:39:23.215Z,22.43
2022-09-27T07:41:50.665Z,23.05
2022-09-27T07:44:18.450Z,22.65
2022-09-27T07:47:15.017Z,21.86
2022-09-27T07:50:07.987Z,20.99
2022-09-27T07:52:58.123Z,21.71
2022-09-27T07:55:28.482Z,22.57
2022-09-27T07:58:19.421Z,22.65
2022-09-27T08:00:47.560Z,21.98
2022-09-27T08:03:17.776Z,21.47
2022-09-27T08:05:48.105Z,21.17
2022-09-27T08:08:16.873Z,20.45
2022-09-27T08:10:46.787Z,20.03
2022-09-27T08:13:18.087Z,20.04
2022-09-27T08:15:46.302Z,21.18
2022-09-27T08:18:13.901Z,21.65
2022-09-27T08:21:00.261Z,21.61
2022-09-27T08:23:27.899Z,22.55
2022-09-27T08:26:13.738Z,23.40
2022-09-27T08:28:51.079Z,22.37
2022-09-27T08:31:21.833Z,21.35
2022-09-27T08:33:51.383Z,20.45
2022-09-27T08:36:20.781Z,19.53
2022-09-27T08:38:52.215Z,18.86
2022-09-27T08:41:34.914Z,18.60
2022-09-27T08:44:16.125Z,18.27
2022-09-27T08:47:15.915Z,18.39
2022-09-27T08:49:51.535Z,18.13
2022-09-27T08:52:30.570Z,18.18
2022-09-27T08:55:05.859Z,19.45
2022-09-27T08:57:37.390Z,20.51
2022-09-27T09:00:14.929Z,22.06
2022-09-27T09:02:44.318Z,23.52
2022-09-27T09:05:17.972Z,23.57
2022-09-27T09:08:03.366Z,23.81
2022-09-27T09:11:08.935Z,22.92
2022-09-27T09:14:10.244Z,20.91
2022-09-27T09:17:19.392Z,19.18
2022-09-27T09:20:26.284Z,18.21
2022-09-27T09:23:22.314Z,17.87
2022-09-27T09:26:05.221Z,18.55
2022-09-27T09:28:43.586Z,19.43
2022-09-27T09:31:29.486Z,19.20
2022-09-27T09:34:20.299Z,18.38
2022-09-27T09:37:08.736Z,18.39
2022-09-27T09:39:43.237Z,18.30
2022-09-27T09:42:20.531Z,17.94
2022-09-27T09:44:57.208Z,19.02
2022-09-27T09:47:44.958Z,20.14
2022-09-27T09:50:17.962Z,19.21
2022-09-27T09:52:58.395Z,18.45
2022-09-27T09:55:31.653Z,17.74
2022-09-27T09:58:23.585Z,17.38
2022-09-27T10:01:00.772Z,18.66
2022-09-27T10:03:29.069Z,21.33
2022-09-27T10:05:56.715Z,23.89
2022-09-27T10:08:24.803Z,25.78
2022-09-27T10:11:17.609Z,27.58
2022-09-27T10:13:50.794Z,29.03
2022-09-27T10:16:20.916Z,29.99
2022-09-27T10:18:51.284Z,30.24
2022-09-27T10:21:26.133Z,30.33
2022-09-27T10:24:16.474Z,31.24
2022-09-27T10:27:04.245Z,29.78
2022-09-27T10:29:38.283Z,27.29
2022-09-27T10:32:27.318Z,25.71
2022-09-27T10:35:23.868Z,26.62
2022-09-27T10:37:53.389Z,27.05
2022-09-27T10:40:33.852Z,26.04
2022-09-27T10:43:32.791Z,24.77
2022-09-27T10:46:36.100Z,22.71
2022-09-27T10:49:41.447Z,20.99
2022-09-27T10:52:43.011Z,19.46
2022-09-27T10:55:36.424Z,19.21
2022-09-27T10:58:04.674Z,19.87
2022-09-27T11:00:37.123Z,19.52
2022-09-27T11:03:16.653Z,20.15
2022-09-27T11:05:45.590Z,20.48
2022-09-27T11:08:19.110Z,19.93
2022-09-27T11:11:16.456Z,21.06
2022-09-27T11:14:04.915Z,22.16
2022-09-27T11:16:50.186Z,21.26
2022-09-27T11:19:33.590Z,20.48
2022-09-27T11:22:35.858Z,19.99
2022-09-27T11:25:41.821Z,19.89
2022-09-27T11:28:36.803Z,23.09
2022-09-27T11:31:38.445Z,27.48
2022-09-27T11:34:41.305Z,29.84
2022-09-27T11:37:21.819Z,30.68
2022-09-27T11:40:04.925Z,31.33
2022-09-27T11:43:00.244Z,31.87
2022-09-27T11:48:58.670Z,30.41
2022-09-27T11:51:26.883Z,30.06
2022-09-27T11:54:18.375Z,28.59
2022-09-27T11:56:45.819Z,29.18
2022-09-27T11:59:24.921Z,30.69
2022-09-27T12:02:00.262Z,31.81
2022-09-27T12:05:08.415Z,33.65
2022-09-27T12:08:34.066Z,33.26
2022-09-27T12:11:30.584Z,30.85
2022-09-27T12:14:22.443Z,30.16
2022-09-27T12:16:55.716Z,27.74
2022-09-27T12:19:29.671Z,27.27
2022-09-27T12:22:06.763Z,28.84
2022-09-27T12:24:39.146Z,30.67
2022-09-27T12:27:46.776Z,32.63
2022-09-27T12:30:19.307Z,33.46
2022-09-27T12:33:06.386Z,34.20
2022-09-27T12:36:01.506Z,34.22
2022-09-27T12:39:02.033Z,30.96
2022-09-27T12:41:38.241Z,27.17
2022-09-27T12:44:32.247Z,24.63
2022-09-27T12:47:25.908Z,22.96
2022-09-27T12:50:00.499Z,21.46
2022-09-27T12:52:37.352Z,20.58
2022-09-27T12:55:15.585Z,20.15
2022-09-27T12:58:19.799Z,19.84
2022-09-27T13:01:18.494Z,19.29
2022-09-27T13:04:17.196Z,19.01
2022-09-27T13:06:57.025Z,18.53
2022-09-27T13:10:14.677Z,18.37
2022-09-27T13:12:50.249Z,17.67
2022-09-27T13:15:33.742Z,17.23
2022-09-27T13:18:06.849Z,16.60
2022-09-27T13:20:46.467Z,16.26
2022-09-27T13:23:32.337Z,16.10
2022-09-27T13:26:20.299Z,15.95
2022-09-27T13:28:51.598Z,15.76
2022-09-27T13:31:59.433Z,15.70
2022-09-27T13:34:44.473Z,15.47
2022-09-27T13:37:37.702Z,15.48
2022-09-27T13:40:34.342Z,15.38
2022-09-27T13:43:11.168Z,15.19
2022-09-27T13:45:57.279Z,15.11
2022-09-27T13:48:37.725Z,15.02
2022-09-27T13:51:41.894Z,14.99
2022-09-27T13:54:34.100Z,14.74
2022-09-27T13:57:07.629Z,14.55
2022-09-27T13:59:58.889Z,14.51
2022-09-27T14:02:38.159Z,14.37
2022-09-27T14:05:13.723Z,14.29
2022-09-27T14:07:43.905Z,14.12
2022-09-27T14:10:17.252Z,14.00
2022-09-27T14:12:47.519Z,13.95
2022-09-27T14:15:23.682Z,13.89
2022-09-27T14:17:53.442Z,13.90
2022-09-27T14:20:42.833Z,13.86
2022-09-27T14:23:26.505Z,13.59
2022-09-27T14:25:55.233Z,13.53
2022-09-27T14:28:27.929Z,13.45
2022-09-27T14:31:23.878Z,13.46
2022-09-27T14:34:26.790Z,13.41
2022-09-27T14:37:12.720Z,13.30
2022-09-27T14:40:05.397Z,13.35
2022-09-27T14:42:36.914Z,13.29
2022-09-27T14:45:21.620Z,13.30
2022-09-27T14:47:51.212Z,13.19
2022-09-27T14:50:29.569Z,13.17
2022-09-27T14:52:59.914Z,13.16
2022-09-27T14:55:30.520Z,13.16
2022-09-27T14:57:59.147Z,13.15
2022-09-27T15:00:32.440Z,13.06
2022-09-27T15:03:04.194Z,13.05
2022-09-27T15:05:34.482Z,13.09
2022-09-27T15:08:06.648Z,13.09
2022-09-27T15:10:38.858Z,13.08
2022-09-27T15:13:07.387Z,12.91
2022-09-27T15:15:39.858Z,12.87
2022-09-27T15:18:38.124Z,12.95
2022-09-27T15:21:06.723Z,12.81
2022-09-27T15:23:39.981Z,12.74
2022-09-27T15:26:30.009Z,12.67
2022-09-27T15:28:57.542Z,12.60
2022-09-27T15:31:36.132Z,12.55
2022-09-27T15:34:06.790Z,12.51
2022-09-27T15:36:52.055Z,12.56
2022-09-27T15:39:27.363Z,12.42
2022-09-27T15:42:17.388Z,12.52
2022-09-27T15:44:54.596Z,12.47
2022-09-27T15:47:43.385Z,12.59
2022-09-27T15:50:16.864Z,12.49
2022-09-27T15:52:56.111Z,12.36
2022-09-27T15:55:26.928Z,12.41
2022-09-27T15:58:03.855Z,12.42
2022-09-27T16:00:35.121Z,12.42
2022-09-27T16:03:02.695Z,12.38
2022-09-27T16:05:30.393Z,12.35
2022-09-27T16:08:00.394Z,12.25
2022-09-27T16:10:38.926Z,12.26
2022-09-27T16:13:06.521Z,12.21
2022-09-27T16:15:33.964Z,12.18
2022-09-27T16:18:01.362Z,12.21
2022-09-27T16:20:28.940Z,12.30
2022-09-27T16:22:57.131Z,12.27
2022-09-27T16:25:25.431Z,12.29
2022-09-27T16:27:58.623Z,12.28
2022-09-27T16:30:27.074Z,12.19
2022-09-27T16:32:54.751Z,12.23
2022-09-27T16:35:23.960Z,12.14
2022-09-27T16:37:51.506Z,12.22
2022-09-27T16:40:19.626Z,12.05
2022-09-27T16:42:50.262Z,11.96
2022-09-27T16:45:19.618Z,12.02
2022-09-27T16:47:47.910Z,11.96
2022-09-27T16:50:34.173Z,11.93
2022-09-27T16:53:01.767Z,11.93
2022-09-27T16:55:29.482Z,11.90
2022-09-27T16:57:59.994Z,11.87
2022-09-27T17:00:27.869Z,11.84
2022-09-27T17:02:55.714Z,11.79
2022-09-27T17:05:23.294Z,11.80
2022-09-27T17:07:52.495Z,11.73
2022-09-27T17:10:21.068Z,11.73
2022-09-27T17:12:49.042Z,11.74
2022-09-27T17:15:17.307Z,11.82
2022-09-27T17:17:48.488Z,11.88
2022-09-27T17:20:16.282Z,11.77
2022-09-27T17:22:43.795Z,11.73
2022-09-27T17:25:11.472Z,11.76
2022-09-27T17:27:38.963Z,11.76
2022-09-27T17:30:07.409Z,11.69
2022-09-27T17:32:35.102Z,11.67
2022-09-27T17:35:02.849Z,11.66
2022-09-27T17:37:30.767Z,11.64
2022-09-27T17:39:58.310Z,11.63
2022-09-27T17:42:25.866Z,11.58
2022-09-27T17:44:53.585Z,11.49
2022-09-27T17:47:39.906Z,11.45
2022-09-27T17:50:25.130Z,11.43
2022-09-27T17:52:53.638Z,11.36
2022-09-27T17:55:21.838Z,11.35
2022-09-27T17:57:50.361Z,11.33
2022-09-27T18:00:18.946Z,11.26
2022-09-27T18:02:46.662Z,11.30
2022-09-27T18:05:14.485Z,11.23
2022-09-27T18:07:42.403Z,11.31
2022-09-27T18:10:10.066Z,11.34
2022-09-27T18:12:39.104Z,11.35
2022-09-27T18:15:07.456Z,11.35
2022-09-27T18:17:36.437Z,11.44
2022-09-27T18:20:05.464Z,11.44
2022-09-27T18:22:32.867Z,11.49
2022-09-27T18:25:01.064Z,11.49
2022-09-27T18:27:29.335Z,11.45
2022-09-27T18:29:56.825Z,11.43
2022-09-27T18:32:24.438Z,11.33
2022-09-27T18:34:52.004Z,11.38
2022-09-27T18:37:19.490Z,11.37
2022-09-27T18:39:47.065Z,11.31
2022-09-27T18:42:14.499Z,11.29
2022-09-27T18:44:42.034Z,11.31
2022-09-27T18:47:09.480Z,11.35
2022-09-27T18:49:37.214Z,11.38
2022-09-27T18:52:04.679Z,11.33
2022-09-27T18:54:32.219Z,11.36
2022-09-27T18:56:59.895Z,11.27
2022-09-27T18:59:28.906Z,11.30
2022-09-27T19:01:56.582Z,11.33
2022-09-27T19:04:25.861Z,11.34
2022-09-27T19:06:55.093Z,11.30
2022-09-27T19:09:22.898Z,11.31
2022-09-27T19:11:50.456Z,11.31
2022-09-27T19:14:20.614Z,11.32
2022-09-27T19:16:48.853Z,11.35
2022-09-27T19:19:20.475Z,11.26
2022-09-27T19:21:49.040Z,11.24
2022-09-27T19:24:19.266Z,11.21
2022-09-27T19:26:53.566Z,11.21
2022-09-27T19:29:21.330Z,11.21
2022-09-27T19:31:48.951Z,11.16
2022-09-27T19:34:16.548Z,11.19
2022-09-27T19:36:44.109Z,11.22
2022-09-27T19:39:11.519Z,11.21
2022-09-27T19:41:40.323Z,11.24
2022-09-27T19:44:07.878Z,11.28
2022-09-27T19:46:35.499Z,11.34
2022-09-27T19:49:03.004Z,11.30
2022-09-27T19:51:31.118Z,11.39
2022-09-27T19:53:58.612Z,11.44
2022-09-27T19:56:26.439Z,11.36
2022-09-27T19:58:56.888Z,11.33
2022-09-27T20:01:25.617Z,11.30
2022-09-27T20:03:58.098Z,11.29
2022-09-27T20:06:26.202Z,11.29
2022-09-27T20:08:53.755Z,11.30
2022-09-27T20:11:23.085Z,11.23
2022-09-27T20:13:52.725Z,11.31
2022-09-27T20:16:22.520Z,11.19
2022-09-27T20:18:55.274Z,11.19
2022-09-27T20:21:25.116Z,11.07
2022-09-27T20:23:54.847Z,11.15
2022-09-27T20:26:26.599Z,11.15
2022-09-27T20:28:57.171Z,11.18
2022-09-27T20:31:27.741Z,11.29
2022-09-27T20:33:55.889Z,11.20
2022-09-27T20:36:31.895Z,11.13
2022-09-27T20:39:03.076Z,11.12
2022-09-27T20:41:33.305Z,11.16
2022-09-27T20:44:03.669Z,11.19
2022-09-27T20:46:32.451Z,11.11
2022-09-27T20:49:04.341Z,11.13
2022-09-27T20:51:33.355Z,11.06
2022-09-27T20:54:01.893Z,11.06
2022-09-27T20:56:35.707Z,11.04
2022-09-27T20:59:06.168Z,11.07
2022-09-27T21:01:33.938Z,11.04
2022-09-27T21:04:04.543Z,11.11
2022-09-27T21:06:32.977Z,11.15
2022-09-27T21:09:05.462Z,11.18
2022-09-27T21:11:33.488Z,11.13
2022-09-27T21:14:01.320Z,11.10
2022-09-27T21:16:34.535Z,11.06
2022-09-27T21:19:02.444Z,10.96
2022-09-27T21:21:30.567Z,11.02
2022-09-27T21:24:00.459Z,11.01
2022-09-27T21:26:32.828Z,10.95
2022-09-27T21:29:01.796Z,10.94
2022-09-27T21:31:34.279Z,10.97
2022-09-27T21:34:04.461Z,10.94
2022-09-27T21:36:34.435Z,11.01
2022-09-27T21:39:02.015Z,10.94
2022-09-27T21:41:29.615Z,11.04
2022-09-27T21:43:57.608Z,11.07
2022-09-27T21:46:27.569Z,11.03
2022-09-27T21:48:57.507Z,11.02
2022-09-27T21:51:27.523Z,10.93
2022-09-27T21:54:00.846Z,10.94
2022-09-27T21:56:30.527Z,10.80
2022-09-27T21:58:58.375Z,10.84
2022-09-27T22:01:29.612Z,10.85
2022-09-27T22:03:58.374Z,10.80
2022-09-27T22:06:37.983Z,10.81
2022-09-27T22:09:10.622Z,10.80
2022-09-27T22:11:42.496Z,10.85
2022-09-27T22:14:15.459Z,10.73
2022-09-27T22:16:43.031Z,10.72
2022-09-27T22:19:13.163Z,10.70
2022-09-27T22:21:41.576Z,10.68
2022-09-27T22:24:13.799Z,10.67
2022-09-27T22:26:45.467Z,10.64
2022-09-27T22:29:13.194Z,10.71
2022-09-27T22:31:40.675Z,10.72
2022-09-27T22:34:16.925Z,10.78
2022-09-27T22:36:44.535Z,10.71
2022-09-27T22:39:12.532Z,10.75
2022-09-27T22:41:40.190Z,10.71
2022-09-27T22:44:08.669Z,10.72
2022-09-27T22:46:36.149Z,10.76
2022-09-27T22:49:03.647Z,10.73
2022-09-27T22:51:31.070Z,10.72
2022-09-27T22:53:58.629Z,10.73
2022-09-27T22:56:26.014Z,10.66
2022-09-27T22:58:53.385Z,10.66
2022-09-27T23:01:23.263Z,10.66
2022-09-27T23:03:53.447Z,10.65
2022-09-27T23:06:22.459Z,10.61
2022-09-27T23:08:51.518Z,10.57
2022-09-27T23:11:21.324Z,10.62
2022-09-27T23:13:50.433Z,10.57
2022-09-27T23:16:20.396Z,10.68
2022-09-27T23:18:48.085Z,10.69
2022-09-27T23:21:16.257Z,10.73
2022-09-27T23:23:45.171Z,10.73
2022-09-27T23:26:14.860Z,10.55
2022-09-27T23:28:42.758Z,10.64
2022-09-27T23:31:17.148Z,10.64
2022-09-27T23:33:47.562Z,10.53
2022-09-27T23:36:19.258Z,10.50
2022-09-27T23:38:48.637Z,10.52
2022-09-27T23:41:17.235Z,10.54
2022-09-27T23:43:45.554Z,10.47
2022-09-27T23:46:13.144Z,10.57
2022-09-27T23:48:41.115Z,10.49
2022-09-27T23:51:11.084Z,10.40
2022-09-27T23:53:39.717Z,10.38
2022-09-27T23:56:13.542Z,10.45
2022-09-27T23:58:43.295Z,10.41
